createdAt,value
2019-02-26T00:00:51.932Z,22.65
2019-02-26T00:01:52.923Z,22.69
2019-02-26T00:02:52.950Z,22.67
2019-02-26T00:03:50.895Z,22.64
2019-02-26T00:04:53.524Z,22.67
2019-02-26T00:05:52.083Z,22.69
2019-02-26T00:06:51.827Z,22.72
2019-02-26T00:07:52.879Z,22.60
2019-02-26T00:08:53.286Z,22.56
2019-02-26T00:09:53.251Z,22.43
2019-02-26T00:10:54.716Z,22.57
2019-02-26T00:11:51.247Z,22.53
2019-02-26T00:12:51.275Z,22.53
2019-02-26T00:13:52.414Z,22.62
2019-02-26T00:14:52.925Z,22.68
2019-02-26T00:15:51.424Z,22.56
2019-02-26T00:16:51.456Z,22.57
2019-02-26T00:17:52.999Z,22.53
2019-02-26T00:18:51.592Z,22.44
2019-02-26T00:19:51.584Z,22.43
2019-02-26T00:20:51.659Z,22.37
2019-02-26T00:21:52.431Z,22.47
2019-02-26T00:22:53.563Z,22.53
2019-02-26T00:23:53.097Z,22.50
2019-02-26T00:24:51.838Z,22.46
2019-02-26T00:25:51.870Z,22.53
2019-02-26T00:26:51.932Z,22.52
2019-02-26T00:27:53.990Z,22.38
2019-02-26T00:28:52.027Z,22.35
2019-02-26T00:29:53.071Z,22.37
2019-02-26T00:30:52.120Z,22.29
2019-02-26T00:31:53.010Z,22.37
2019-02-26T00:32:53.220Z,22.46
2019-02-26T00:33:52.250Z,22.38
2019-02-26T00:34:53.157Z,22.35
2019-02-26T00:35:52.343Z,22.34
2019-02-26T00:36:52.451Z,22.27
2019-02-26T00:37:53.501Z,22.27
2019-02-26T00:38:52.491Z,22.27
2019-02-26T00:39:54.142Z,22.17
2019-02-26T00:40:52.652Z,22.16
2019-02-26T00:41:53.662Z,22.06
2019-02-26T00:42:55.031Z,21.85
2019-02-26T00:43:53.515Z,21.82
2019-02-26T00:44:55.341Z,21.67
2019-02-26T00:45:53.400Z,21.59
2019-02-26T00:46:53.624Z,21.54
2019-02-26T00:47:52.930Z,21.54
2019-02-26T00:48:52.962Z,21.44
2019-02-26T00:49:53.483Z,21.34
2019-02-26T00:50:54.458Z,21.30
2019-02-26T00:51:53.097Z,21.42
2019-02-26T00:52:56.478Z,21.34
2019-02-26T00:53:55.050Z,21.32
2019-02-26T00:54:53.587Z,21.24
2019-02-26T00:55:54.315Z,21.20
2019-02-26T00:56:57.044Z,21.30
2019-02-26T00:57:56.756Z,21.34
2019-02-26T00:58:53.394Z,21.19
2019-02-26T00:59:53.448Z,21.26
2019-02-26T01:00:53.469Z,21.13
2019-02-26T01:01:54.858Z,21.19
2019-02-26T01:02:53.580Z,21.14
2019-02-26T01:03:53.610Z,21.06
2019-02-26T01:04:53.664Z,21.20
2019-02-26T01:05:53.698Z,21.13
2019-02-26T01:06:53.802Z,21.11
2019-02-26T01:07:54.432Z,21.13
2019-02-26T01:08:53.853Z,21.19
2019-02-26T01:09:54.694Z,21.21
2019-02-26T01:10:53.940Z,21.16
2019-02-26T01:11:54.063Z,21.16
2019-02-26T01:12:54.001Z,21.09
2019-02-26T01:13:55.117Z,21.08
2019-02-26T01:14:54.098Z,21.20
2019-02-26T01:15:54.150Z,21.17
2019-02-26T01:16:54.187Z,21.20
2019-02-26T01:17:55.018Z,21.27
2019-02-26T01:18:54.296Z,21.20
2019-02-26T01:19:56.130Z,21.13
2019-02-26T01:20:54.816Z,21.14
2019-02-26T01:21:54.403Z,21.16
2019-02-26T01:22:54.451Z,21.08
2019-02-26T01:23:56.515Z,21.17
2019-02-26T01:24:56.216Z,21.11
2019-02-26T01:25:54.769Z,21.13
2019-02-26T01:26:54.643Z,21.24
2019-02-26T01:27:56.272Z,21.19
2019-02-26T01:28:56.038Z,21.11
2019-02-26T01:29:55.815Z,21.09
2019-02-26T01:30:56.181Z,21.17
2019-02-26T01:31:54.871Z,21.26
2019-02-26T01:32:57.596Z,21.24
2019-02-26T01:33:55.694Z,21.24
2019-02-26T01:34:54.999Z,21.16
2019-02-26T01:35:55.509Z,21.30
2019-02-26T01:36:55.082Z,21.19
2019-02-26T01:37:55.869Z,21.16
2019-02-26T01:38:55.175Z,21.13
2019-02-26T01:39:55.210Z,21.21
2019-02-26T01:40:55.989Z,21.27
2019-02-26T01:41:56.250Z,21.32
2019-02-26T01:42:57.919Z,21.36
2019-02-26T01:43:55.382Z,21.30
2019-02-26T01:44:55.436Z,21.34
2019-02-26T01:45:55.556Z,21.41
2019-02-26T01:46:57.796Z,21.35
2019-02-26T01:47:55.568Z,21.34
2019-02-26T01:48:57.451Z,21.29
2019-02-26T01:49:55.676Z,21.23
2019-02-26T01:50:57.432Z,21.20
2019-02-26T01:51:55.747Z,21.34
2019-02-26T01:52:56.812Z,21.32
2019-02-26T01:53:55.827Z,21.34
2019-02-26T01:54:57.902Z,21.39
2019-02-26T01:55:55.943Z,21.13
2019-02-26T01:56:55.973Z,21.17
2019-02-26T01:57:58.538Z,21.27
2019-02-26T01:58:56.863Z,21.11
2019-02-26T01:59:56.110Z,21.14
2019-02-26T02:00:56.161Z,21.16
2019-02-26T02:01:56.183Z,21.13
2019-02-26T02:02:56.258Z,21.05
2019-02-26T02:03:56.460Z,21.02
2019-02-26T02:04:57.275Z,20.93
2019-02-26T02:05:56.363Z,20.93
2019-02-26T02:06:57.149Z,20.93
2019-02-26T02:07:56.466Z,21.01
2019-02-26T02:08:56.544Z,20.96
2019-02-26T02:09:58.263Z,20.96
2019-02-26T02:10:59.356Z,21.04
2019-02-26T02:11:57.403Z,20.99
2019-02-26T02:12:59.547Z,20.93
2019-02-26T02:13:56.736Z,20.99
2019-02-26T02:14:56.799Z,21.04
2019-02-26T02:15:57.579Z,21.11
2019-02-26T02:16:56.895Z,21.06
2019-02-26T02:17:57.774Z,21.06
2019-02-26T02:18:58.226Z,21.06
2019-02-26T02:19:57.019Z,21.19
2019-02-26T02:20:57.071Z,21.08
2019-02-26T02:21:58.274Z,21.08
2019-02-26T02:22:58.176Z,21.17
2019-02-26T02:23:57.198Z,21.14
2019-02-26T02:24:57.269Z,21.08
2019-02-26T02:26:00.021Z,21.04
2019-02-26T02:26:58.577Z,21.06
2019-02-26T02:27:59.350Z,21.04
2019-02-26T02:28:57.411Z,21.20
2019-02-26T02:29:57.824Z,21.04
2019-02-26T02:30:57.505Z,21.17
2019-02-26T02:31:59.473Z,21.14
2019-02-26T02:33:00.057Z,21.14
2019-02-26T02:33:57.710Z,21.13
2019-02-26T02:35:00.622Z,21.17
2019-02-26T02:35:57.755Z,21.06
2019-02-26T02:36:57.803Z,21.16
2019-02-26T02:38:00.121Z,21.19
2019-02-26T02:38:57.866Z,21.21
2019-02-26T02:39:57.941Z,21.20
2019-02-26T02:40:57.976Z,21.16
2019-02-26T02:41:58.020Z,21.32
2019-02-26T02:42:58.071Z,21.30
2019-02-26T02:43:58.091Z,21.26
2019-02-26T02:44:58.167Z,21.27
2019-02-26T02:45:59.026Z,21.23
2019-02-26T02:46:59.078Z,21.30
2019-02-26T02:48:00.588Z,21.29
2019-02-26T02:48:58.338Z,21.24
2019-02-26T02:49:58.381Z,21.20
2019-02-26T02:50:59.711Z,21.16
2019-02-26T02:51:59.022Z,21.13
2019-02-26T02:52:59.658Z,21.16
2019-02-26T02:53:59.359Z,21.20
2019-02-26T02:54:58.642Z,21.20
2019-02-26T02:55:58.654Z,21.27
2019-02-26T02:57:00.029Z,21.35
2019-02-26T02:58:00.487Z,21.29
2019-02-26T02:58:58.772Z,21.26
2019-02-26T02:59:59.702Z,21.34
2019-02-26T03:01:00.329Z,21.32
2019-02-26T03:01:58.920Z,21.36
2019-02-26T03:02:58.956Z,21.36
2019-02-26T03:04:01.024Z,21.36
2019-02-26T03:04:59.053Z,21.30
2019-02-26T03:06:01.787Z,21.09
2019-02-26T03:07:00.621Z,21.05
2019-02-26T03:07:59.173Z,21.02
2019-02-26T03:08:59.256Z,21.09
2019-02-26T03:10:00.594Z,21.05
2019-02-26T03:10:59.347Z,21.08
2019-02-26T03:11:59.393Z,21.04
2019-02-26T03:13:00.440Z,21.11
2019-02-26T03:13:59.475Z,21.17
2019-02-26T03:15:02.110Z,21.04
2019-02-26T03:16:01.641Z,21.11
2019-02-26T03:16:59.578Z,20.90
2019-02-26T03:17:59.644Z,20.99
2019-02-26T03:18:59.735Z,20.93
2019-02-26T03:20:04.167Z,21.13
2019-02-26T03:21:02.057Z,21.05
2019-02-26T03:21:59.920Z,21.11
2019-02-26T03:22:59.941Z,21.14
2019-02-26T03:24:01.111Z,21.08
2019-02-26T03:25:01.924Z,21.06
2019-02-26T03:25:59.994Z,21.11
2019-02-26T03:27:00.085Z,21.09
2019-02-26T03:28:00.077Z,21.14
2019-02-26T03:29:00.182Z,21.08
2019-02-26T03:30:01.887Z,21.11
2019-02-26T03:31:00.259Z,21.09
2019-02-26T03:32:00.256Z,21.11
2019-02-26T03:33:04.091Z,21.16
2019-02-26T03:34:08.470Z,21.27
2019-02-26T03:35:04.396Z,21.19
2019-02-26T03:36:00.464Z,21.14
2019-02-26T03:37:03.118Z,21.13
2019-02-26T03:38:03.029Z,21.08
2019-02-26T03:39:02.632Z,21.02
2019-02-26T03:40:02.874Z,20.99
2019-02-26T03:41:03.233Z,20.98
2019-02-26T03:42:00.739Z,20.80
2019-02-26T03:43:01.512Z,20.83
2019-02-26T03:44:03.258Z,20.83
2019-02-26T03:45:02.973Z,20.86
2019-02-26T03:46:00.892Z,20.89
2019-02-26T03:47:00.954Z,20.90
2019-02-26T03:48:00.972Z,20.99
2019-02-26T03:49:02.710Z,20.91
2019-02-26T03:50:01.093Z,20.95
2019-02-26T03:51:01.482Z,20.90
2019-02-26T03:52:01.169Z,20.89
2019-02-26T03:53:01.198Z,20.90
2019-02-26T03:54:01.260Z,21.01
2019-02-26T03:55:03.480Z,21.04
2019-02-26T03:56:04.253Z,21.02
2019-02-26T03:57:01.424Z,20.95
2019-02-26T03:58:02.116Z,20.99
2019-02-26T03:59:03.994Z,20.98
2019-02-26T04:00:05.681Z,20.93
2019-02-26T04:01:04.517Z,20.93
2019-02-26T04:02:01.619Z,20.76
2019-02-26T04:03:03.530Z,20.86
2019-02-26T04:04:02.453Z,20.72
2019-02-26T04:05:02.983Z,20.81
2019-02-26T04:06:03.201Z,20.79
2019-02-26T04:07:04.287Z,20.65
2019-02-26T04:08:04.130Z,20.69
2019-02-26T04:09:01.941Z,20.71
2019-02-26T04:10:01.977Z,20.65
2019-02-26T04:11:02.100Z,20.69
2019-02-26T04:12:02.062Z,20.69
2019-02-26T04:13:02.207Z,20.62
2019-02-26T04:14:02.169Z,20.65
2019-02-26T04:15:02.195Z,20.56
2019-02-26T04:16:04.566Z,20.51
2019-02-26T04:17:04.106Z,20.58
2019-02-26T04:18:02.382Z,20.56
2019-02-26T04:19:02.394Z,20.59
2019-02-26T04:20:02.634Z,20.65
2019-02-26T04:21:05.634Z,20.65
2019-02-26T04:22:02.519Z,20.69
2019-02-26T04:23:02.611Z,20.71
2019-02-26T04:24:03.581Z,20.66
2019-02-26T04:25:06.355Z,20.64
2019-02-26T04:26:02.721Z,20.65
2019-02-26T04:27:02.753Z,20.62
2019-02-26T04:28:05.169Z,20.65
2019-02-26T04:29:02.856Z,20.69
2019-02-26T04:30:02.889Z,20.69
2019-02-26T04:31:03.297Z,20.68
2019-02-26T04:32:02.948Z,20.71
2019-02-26T04:33:04.083Z,20.68
2019-02-26T04:34:05.359Z,20.56
2019-02-26T04:35:03.111Z,20.59
2019-02-26T04:36:03.151Z,20.56
2019-02-26T04:37:04.837Z,20.50
2019-02-26T04:38:04.103Z,20.56
2019-02-26T04:39:03.287Z,20.53
2019-02-26T04:40:05.340Z,20.54
2019-02-26T04:41:06.065Z,20.56
2019-02-26T04:42:05.427Z,20.56
2019-02-26T04:43:04.699Z,20.47
2019-02-26T04:44:05.876Z,20.54
2019-02-26T04:45:05.874Z,20.42
2019-02-26T04:46:05.058Z,20.53
2019-02-26T04:47:05.930Z,20.47
2019-02-26T04:48:03.702Z,20.53
2019-02-26T04:49:03.770Z,20.61
2019-02-26T04:50:06.254Z,20.54
2019-02-26T04:51:03.835Z,20.47
2019-02-26T04:52:05.571Z,20.56
2019-02-26T04:53:05.834Z,20.51
2019-02-26T04:54:04.001Z,20.56
2019-02-26T04:55:03.988Z,20.58
2019-02-26T04:56:05.954Z,20.58
2019-02-26T04:57:04.106Z,20.59
2019-02-26T04:58:04.187Z,20.69
2019-02-26T04:59:06.204Z,20.66
2019-02-26T05:00:05.293Z,20.64
2019-02-26T05:01:06.877Z,20.80
2019-02-26T05:02:04.322Z,20.80
2019-02-26T05:03:05.221Z,20.83
2019-02-26T05:04:04.415Z,20.95
2019-02-26T05:05:04.467Z,20.83
2019-02-26T05:06:07.354Z,20.74
2019-02-26T05:07:07.243Z,20.81
2019-02-26T05:08:06.900Z,20.77
2019-02-26T05:09:05.706Z,20.87
2019-02-26T05:10:04.666Z,20.86
2019-02-26T05:11:04.751Z,20.81
2019-02-26T05:12:04.772Z,20.80
2019-02-26T05:13:07.314Z,20.74
2019-02-26T05:14:06.751Z,20.62
2019-02-26T05:15:04.918Z,20.51
2019-02-26T05:16:04.956Z,20.64
2019-02-26T05:17:05.036Z,20.59
2019-02-26T05:18:05.032Z,20.56
2019-02-26T05:19:05.084Z,20.58
2019-02-26T05:20:07.291Z,20.51
2019-02-26T05:21:07.584Z,20.58
2019-02-26T05:22:06.903Z,20.54
2019-02-26T05:23:06.319Z,20.50
2019-02-26T05:24:05.437Z,20.56
2019-02-26T05:25:07.451Z,20.43
2019-02-26T05:26:08.100Z,20.51
2019-02-26T05:27:09.458Z,20.47
2019-02-26T05:28:06.533Z,20.43
2019-02-26T05:29:05.724Z,20.46
2019-02-26T05:30:06.946Z,20.38
2019-02-26T05:31:06.554Z,20.42
2019-02-26T05:32:07.260Z,20.39
2019-02-26T05:33:05.697Z,20.24
2019-02-26T05:34:05.735Z,20.24
2019-02-26T05:35:05.785Z,20.28
2019-02-26T05:36:06.776Z,20.25
2019-02-26T05:37:08.190Z,20.30
2019-02-26T05:38:06.916Z,20.21
2019-02-26T05:39:05.959Z,20.24
2019-02-26T05:40:07.074Z,20.24
2019-02-26T05:41:06.127Z,20.28
2019-02-26T05:42:06.331Z,20.31
2019-02-26T05:43:06.755Z,20.23
2019-02-26T05:44:08.361Z,20.24
2019-02-26T05:45:09.180Z,20.25
2019-02-26T05:46:06.252Z,20.31
2019-02-26T05:47:06.310Z,20.34
2019-02-26T05:48:06.359Z,20.34
2019-02-26T05:49:09.763Z,20.35
2019-02-26T05:50:09.517Z,20.34
2019-02-26T05:51:08.820Z,20.46
2019-02-26T05:52:07.157Z,20.49
2019-02-26T05:53:07.634Z,20.47
2019-02-26T05:54:08.264Z,20.35
2019-02-26T05:55:06.644Z,20.42
2019-02-26T05:56:08.947Z,20.27
2019-02-26T05:57:09.431Z,20.34
2019-02-26T05:58:07.449Z,20.33
2019-02-26T05:59:07.456Z,20.35
2019-02-26T06:00:08.447Z,20.46
2019-02-26T06:01:06.924Z,20.39
2019-02-26T06:02:06.987Z,20.50
2019-02-26T06:03:09.532Z,20.43
2019-02-26T06:04:09.473Z,20.47
2019-02-26T06:05:07.105Z,20.38
2019-02-26T06:06:07.162Z,20.35
2019-02-26T06:07:07.195Z,20.38
2019-02-26T06:08:07.242Z,20.33
2019-02-26T06:09:07.738Z,20.31
2019-02-26T06:10:07.326Z,20.35
2019-02-26T06:11:07.359Z,20.46
2019-02-26T06:12:07.410Z,20.39
2019-02-26T06:13:08.251Z,20.46
2019-02-26T06:14:12.087Z,20.46
2019-02-26T06:15:08.035Z,20.41
2019-02-26T06:16:07.675Z,20.34
2019-02-26T06:17:09.723Z,20.35
2019-02-26T06:18:07.669Z,20.35
2019-02-26T06:19:08.513Z,20.34
2019-02-26T06:20:10.355Z,20.39
2019-02-26T06:21:07.824Z,20.39
2019-02-26T06:22:08.974Z,20.31
2019-02-26T06:23:07.890Z,20.35
2019-02-26T06:24:07.949Z,20.34
2019-02-26T06:25:13.469Z,20.38
2019-02-26T06:26:13.132Z,20.33
2019-02-26T06:27:10.806Z,20.34
2019-02-26T06:28:10.553Z,20.38
2019-02-26T06:29:08.153Z,20.34
2019-02-26T06:30:09.950Z,20.35
2019-02-26T06:31:11.507Z,20.35
2019-02-26T06:32:09.615Z,20.35
2019-02-26T06:33:09.706Z,20.27
2019-02-26T06:34:09.330Z,20.21
2019-02-26T06:35:10.835Z,20.30
2019-02-26T06:36:08.475Z,20.23
2019-02-26T06:37:10.015Z,20.31
2019-02-26T06:38:09.213Z,20.28
2019-02-26T06:39:08.617Z,20.23
2019-02-26T06:40:08.727Z,20.20
2019-02-26T06:41:08.695Z,20.30
2019-02-26T06:42:09.907Z,20.28
2019-02-26T06:43:08.769Z,20.30
2019-02-26T06:44:08.813Z,20.30
2019-02-26T06:45:10.680Z,20.25
2019-02-26T06:46:11.543Z,20.24
2019-02-26T06:47:09.170Z,20.27
2019-02-26T06:48:12.624Z,20.21
2019-02-26T06:49:09.067Z,20.24
2019-02-26T06:50:11.075Z,20.21
2019-02-26T06:51:09.147Z,20.21
2019-02-26T06:52:10.751Z,20.21
2019-02-26T06:53:11.053Z,20.24
2019-02-26T06:54:09.281Z,20.23
2019-02-26T06:55:09.321Z,20.21
2019-02-26T06:56:09.353Z,20.25
2019-02-26T06:57:09.418Z,20.24
2019-02-26T06:58:09.459Z,20.25
2019-02-26T06:59:10.308Z,20.27
2019-02-26T07:00:09.521Z,20.23
2019-02-26T07:01:11.924Z,20.25
2019-02-26T07:02:10.946Z,20.27
2019-02-26T07:03:09.678Z,20.27
2019-02-26T07:04:12.887Z,20.33
2019-02-26T07:05:09.775Z,20.24
2019-02-26T07:06:09.796Z,20.25
2019-02-26T07:07:13.644Z,20.24
2019-02-26T07:08:09.903Z,20.30
2019-02-26T07:09:11.053Z,20.34
2019-02-26T07:10:13.811Z,20.34
2019-02-26T07:11:10.029Z,20.38
2019-02-26T07:12:10.080Z,20.28
2019-02-26T07:13:12.411Z,20.30
2019-02-26T07:14:10.410Z,20.30
2019-02-26T07:15:12.188Z,20.31
2019-02-26T07:16:10.261Z,20.27
2019-02-26T07:17:10.314Z,20.30
2019-02-26T07:18:16.329Z,20.39
2019-02-26T07:19:12.239Z,20.39
2019-02-26T07:20:10.469Z,20.41
2019-02-26T07:21:10.489Z,20.33
2019-02-26T07:22:11.608Z,20.28
2019-02-26T07:23:12.797Z,20.38
2019-02-26T07:24:10.641Z,20.30
2019-02-26T07:25:13.014Z,20.38
2019-02-26T07:26:11.744Z,20.30
2019-02-26T07:27:11.617Z,20.25
2019-02-26T07:28:10.810Z,20.24
2019-02-26T07:29:13.187Z,20.24
2019-02-26T07:30:10.908Z,20.23
2019-02-26T07:31:12.144Z,20.31
2019-02-26T07:32:12.413Z,20.18
2019-02-26T07:33:12.271Z,20.10
2019-02-26T07:34:11.063Z,20.23
2019-02-26T07:35:13.551Z,20.20
2019-02-26T07:36:11.210Z,20.24
2019-02-26T07:37:13.030Z,20.13
2019-02-26T07:38:11.417Z,20.12
2019-02-26T07:39:13.092Z,20.10
2019-02-26T07:40:13.889Z,20.10
2019-02-26T07:41:11.375Z,20.09
2019-02-26T07:42:12.143Z,20.13
2019-02-26T07:43:14.428Z,20.09
2019-02-26T07:44:15.565Z,20.10
2019-02-26T07:45:15.051Z,20.12
2019-02-26T07:46:12.671Z,20.13
2019-02-26T07:47:11.663Z,20.08
2019-02-26T07:48:16.132Z,20.08
2019-02-26T07:49:11.743Z,20.08
2019-02-26T07:50:14.305Z,20.09
2019-02-26T07:51:11.832Z,19.98
2019-02-26T07:52:11.878Z,20.10
2019-02-26T07:53:12.258Z,20.09
2019-02-26T07:54:11.974Z,20.08
2019-02-26T07:55:14.436Z,20.03
2019-02-26T07:56:12.065Z,20.09
2019-02-26T07:57:12.085Z,19.95
2019-02-26T07:58:13.752Z,20.09
2019-02-26T07:59:13.070Z,20.06
2019-02-26T08:00:12.277Z,20.16
2019-02-26T08:01:12.290Z,20.10
2019-02-26T08:02:13.616Z,20.13
2019-02-26T08:03:12.376Z,20.15
2019-02-26T08:04:13.559Z,20.09
2019-02-26T08:05:12.472Z,20.16
2019-02-26T08:06:14.019Z,20.21
2019-02-26T08:07:12.556Z,20.13
2019-02-26T08:08:14.376Z,20.15
2019-02-26T08:09:14.665Z,20.10
2019-02-26T08:10:14.470Z,20.10
2019-02-26T08:11:14.852Z,20.12
2019-02-26T08:12:13.747Z,20.09
2019-02-26T08:13:12.814Z,20.23
2019-02-26T08:14:14.374Z,20.15
2019-02-26T08:15:15.481Z,20.23
2019-02-26T08:16:12.964Z,20.27
2019-02-26T08:17:13.001Z,20.27
2019-02-26T08:18:13.054Z,20.27
2019-02-26T08:19:13.102Z,20.24
2019-02-26T08:20:14.874Z,20.20
2019-02-26T08:21:13.190Z,20.27
2019-02-26T08:22:13.225Z,20.27
2019-02-26T08:23:14.756Z,20.30
2019-02-26T08:24:14.874Z,20.21
2019-02-26T08:25:13.348Z,20.25
2019-02-26T08:26:15.116Z,20.35
2019-02-26T08:27:13.676Z,20.35
2019-02-26T08:28:15.324Z,20.35
2019-02-26T08:29:13.539Z,20.41
2019-02-26T08:30:14.916Z,20.43
2019-02-26T08:31:18.520Z,20.43
2019-02-26T08:32:16.226Z,20.46
2019-02-26T08:33:13.750Z,20.58
2019-02-26T08:34:16.373Z,20.51
2019-02-26T08:35:17.863Z,20.51
2019-02-26T08:36:14.201Z,20.51
2019-02-26T08:37:13.901Z,20.53
2019-02-26T08:38:13.972Z,20.56
2019-02-26T08:39:15.685Z,20.58
2019-02-26T08:40:14.036Z,20.51
2019-02-26T08:41:14.108Z,20.58
2019-02-26T08:42:14.139Z,20.69
2019-02-26T08:43:14.210Z,20.68
2019-02-26T08:44:14.261Z,20.65
2019-02-26T08:45:15.084Z,20.65
2019-02-26T08:46:16.584Z,20.62
2019-02-26T08:47:16.236Z,20.51
2019-02-26T08:48:14.939Z,20.66
2019-02-26T08:49:15.575Z,20.59
2019-02-26T08:50:15.015Z,20.54
2019-02-26T08:51:16.843Z,20.54
2019-02-26T08:52:16.816Z,20.54
2019-02-26T08:53:14.652Z,20.47
2019-02-26T08:54:20.901Z,20.41
2019-02-26T08:55:16.144Z,20.47
2019-02-26T08:56:14.792Z,20.46
2019-02-26T08:57:14.837Z,20.42
2019-02-26T08:58:14.867Z,20.46
2019-02-26T08:59:18.223Z,20.23
2019-02-26T09:00:14.960Z,20.13
2019-02-26T09:01:15.003Z,20.15
2019-02-26T09:02:15.040Z,19.98
2019-02-26T09:03:15.663Z,20.03
2019-02-26T09:04:16.917Z,20.15
2019-02-26T09:05:15.183Z,20.12
2019-02-26T09:06:16.319Z,20.10
2019-02-26T09:07:16.443Z,19.97
2019-02-26T09:08:15.849Z,20.03
2019-02-26T09:09:15.394Z,20.10
2019-02-26T09:10:21.267Z,20.02
2019-02-26T09:11:18.147Z,20.00
2019-02-26T09:12:17.397Z,19.93
2019-02-26T09:13:16.398Z,19.91
2019-02-26T09:14:16.686Z,19.90
2019-02-26T09:15:15.826Z,19.97
2019-02-26T09:16:15.652Z,19.91
2019-02-26T09:17:18.773Z,19.90
2019-02-26T09:18:15.741Z,19.86
2019-02-26T09:19:15.797Z,19.86
2019-02-26T09:20:15.832Z,19.84
2019-02-26T09:21:17.868Z,19.79
2019-02-26T09:22:19.298Z,19.78
2019-02-26T09:23:18.830Z,19.68
2019-02-26T09:24:16.010Z,19.72
2019-02-26T09:25:16.097Z,19.72
2019-02-26T09:26:16.073Z,19.72
2019-02-26T09:27:16.133Z,19.73
2019-02-26T09:28:16.157Z,19.76
2019-02-26T09:29:17.396Z,19.73
2019-02-26T09:30:16.347Z,19.80
2019-02-26T09:31:16.309Z,19.86
2019-02-26T09:32:18.180Z,19.84
2019-02-26T09:33:16.398Z,19.84
2019-02-26T09:34:16.442Z,19.72
2019-02-26T09:35:19.154Z,19.78
2019-02-26T09:36:20.536Z,19.73
2019-02-26T09:37:16.569Z,19.79
2019-02-26T09:38:17.663Z,19.87
2019-02-26T09:39:16.659Z,19.84
2019-02-26T09:40:17.853Z,19.78
2019-02-26T09:41:18.858Z,19.86
2019-02-26T09:42:16.778Z,19.86
2019-02-26T09:43:17.714Z,19.84
2019-02-26T09:44:16.879Z,19.83
2019-02-26T09:45:17.874Z,19.87
2019-02-26T09:46:19.131Z,19.90
2019-02-26T09:47:17.066Z,19.86
2019-02-26T09:48:18.974Z,19.93
2019-02-26T09:49:17.074Z,19.84
2019-02-26T09:50:17.754Z,19.97
2019-02-26T09:51:17.200Z,19.93
2019-02-26T09:52:18.924Z,19.86
2019-02-26T09:53:17.264Z,19.88
2019-02-26T09:54:17.818Z,19.87
2019-02-26T09:55:17.334Z,19.83
2019-02-26T09:56:17.422Z,19.88
2019-02-26T09:57:18.019Z,19.88
2019-02-26T09:58:18.584Z,19.98
2019-02-26T09:59:17.540Z,19.91
2019-02-26T10:00:22.101Z,19.95
2019-02-26T10:01:18.067Z,19.93
2019-02-26T10:02:19.558Z,20.02
2019-02-26T10:03:17.695Z,19.94
2019-02-26T10:04:19.669Z,20.06
2019-02-26T10:05:18.310Z,19.97
2019-02-26T10:06:19.221Z,20.00
2019-02-26T10:07:17.874Z,20.02
2019-02-26T10:08:19.786Z,19.98
2019-02-26T10:09:18.901Z,20.06
2019-02-26T10:10:18.008Z,20.10
2019-02-26T10:11:18.885Z,20.10
2019-02-26T10:12:18.115Z,20.10
2019-02-26T10:13:18.702Z,20.12
2019-02-26T10:14:18.223Z,20.23
2019-02-26T10:15:18.230Z,20.13
2019-02-26T10:16:18.267Z,20.15
2019-02-26T10:17:19.571Z,20.13
2019-02-26T10:18:18.351Z,20.06
2019-02-26T10:19:19.528Z,20.00
2019-02-26T10:20:20.718Z,20.12
2019-02-26T10:21:20.493Z,20.13
2019-02-26T10:22:18.552Z,20.13
2019-02-26T10:23:19.381Z,20.16
2019-02-26T10:24:23.056Z,20.12
2019-02-26T10:25:18.663Z,20.16
2019-02-26T10:26:18.772Z,20.18
2019-02-26T10:27:18.760Z,20.12
2019-02-26T10:28:21.017Z,20.10
2019-02-26T10:29:18.840Z,20.10
2019-02-26T10:30:18.877Z,20.15
2019-02-26T10:31:24.080Z,20.20
2019-02-26T10:32:19.045Z,20.12
2019-02-26T10:33:21.071Z,20.09
2019-02-26T10:34:20.892Z,20.09
2019-02-26T10:35:22.542Z,20.10
2019-02-26T10:36:19.143Z,20.20
2019-02-26T10:37:19.238Z,20.24
2019-02-26T10:38:19.244Z,20.20
2019-02-26T10:39:20.735Z,20.27
2019-02-26T10:40:19.570Z,20.30
2019-02-26T10:41:21.117Z,20.15
2019-02-26T10:42:19.438Z,20.10
2019-02-26T10:43:19.491Z,20.13
2019-02-26T10:44:19.518Z,20.10
2019-02-26T10:45:19.616Z,20.27
2019-02-26T10:46:19.597Z,20.20
2019-02-26T10:47:19.658Z,20.25
2019-02-26T10:48:22.061Z,20.18
2019-02-26T10:49:19.743Z,20.12
2019-02-26T10:50:22.349Z,20.08
2019-02-26T10:51:26.009Z,20.13
2019-02-26T10:52:21.555Z,20.18
2019-02-26T10:53:22.539Z,20.16
2019-02-26T10:54:20.015Z,20.12
2019-02-26T10:55:21.933Z,20.13
2019-02-26T10:56:20.051Z,20.16
2019-02-26T10:57:20.106Z,20.12
2019-02-26T10:58:20.166Z,20.13
2019-02-26T10:59:20.170Z,20.12
2019-02-26T11:00:22.446Z,20.24
2019-02-26T11:01:23.497Z,20.10
2019-02-26T11:02:22.634Z,20.18
2019-02-26T11:03:20.362Z,20.13
2019-02-26T11:04:20.402Z,20.00
2019-02-26T11:05:25.905Z,19.97
2019-02-26T11:06:20.528Z,20.00
2019-02-26T11:07:20.682Z,20.06
2019-02-26T11:08:23.386Z,20.13
2019-02-26T11:09:25.400Z,20.10
2019-02-26T11:10:22.690Z,20.18
2019-02-26T11:11:20.720Z,20.21
2019-02-26T11:12:22.736Z,20.21
2019-02-26T11:13:23.058Z,20.23
2019-02-26T11:14:20.894Z,20.10
2019-02-26T11:15:22.045Z,20.25
2019-02-26T11:16:25.163Z,20.23
2019-02-26T11:17:23.500Z,20.31
2019-02-26T11:18:23.191Z,20.31
2019-02-26T11:19:21.049Z,20.20
2019-02-26T11:20:21.766Z,20.38
2019-02-26T11:21:21.156Z,20.38
2019-02-26T11:22:22.947Z,20.33
2019-02-26T11:23:30.506Z,20.28
2019-02-26T11:24:23.473Z,20.34
2019-02-26T11:25:24.138Z,20.33
2019-02-26T11:26:21.369Z,20.33
2019-02-26T11:27:21.399Z,20.33
2019-02-26T11:28:21.465Z,20.30
2019-02-26T11:29:21.509Z,20.35
2019-02-26T11:30:23.700Z,20.38
2019-02-26T11:31:25.294Z,20.24
2019-02-26T11:32:21.648Z,20.25
2019-02-26T11:33:21.685Z,20.34
2019-02-26T11:34:21.712Z,20.23
2019-02-26T11:35:22.531Z,20.10
2019-02-26T11:36:21.825Z,20.24
2019-02-26T11:37:22.636Z,20.24
2019-02-26T11:38:22.279Z,20.25
2019-02-26T11:39:21.958Z,20.35
2019-02-26T11:40:23.041Z,20.28
2019-02-26T11:41:23.734Z,20.13
2019-02-26T11:42:25.595Z,20.09
2019-02-26T11:43:25.612Z,20.06
2019-02-26T11:44:23.576Z,20.08
2019-02-26T11:45:22.223Z,20.10
2019-02-26T11:46:23.157Z,20.10
2019-02-26T11:47:22.288Z,20.23
2019-02-26T11:48:23.389Z,20.28
2019-02-26T11:49:22.406Z,20.35
2019-02-26T11:50:26.974Z,20.35
2019-02-26T11:51:22.471Z,20.34
2019-02-26T11:52:22.545Z,20.39
2019-02-26T11:53:22.578Z,20.33
2019-02-26T11:54:22.618Z,20.41
2019-02-26T11:55:23.524Z,20.39
2019-02-26T11:56:25.157Z,20.46
2019-02-26T11:57:22.792Z,20.43
2019-02-26T11:58:24.238Z,20.34
2019-02-26T11:59:22.824Z,20.21
2019-02-26T12:00:25.601Z,20.25
2019-02-26T12:01:22.928Z,20.23
2019-02-26T12:02:28.043Z,20.08
2019-02-26T12:03:25.451Z,20.13
2019-02-26T12:04:23.056Z,20.21
2019-02-26T12:05:29.598Z,20.25
2019-02-26T12:06:23.150Z,20.27
2019-02-26T12:07:25.609Z,20.39
2019-02-26T12:08:25.744Z,20.43
2019-02-26T12:09:23.300Z,20.47
2019-02-26T12:10:23.348Z,20.42
2019-02-26T12:11:23.463Z,20.42
2019-02-26T12:12:25.638Z,20.47
2019-02-26T12:13:25.062Z,20.56
2019-02-26T12:14:23.510Z,20.58
2019-02-26T12:15:23.558Z,20.65
2019-02-26T12:16:23.598Z,20.58
2019-02-26T12:17:23.652Z,20.69
2019-02-26T12:18:23.691Z,20.76
2019-02-26T12:19:25.627Z,20.86
2019-02-26T12:20:24.187Z,20.83
2019-02-26T12:21:25.294Z,20.89
2019-02-26T12:22:25.116Z,20.93
2019-02-26T12:23:23.908Z,20.89
2019-02-26T12:24:24.610Z,20.89
2019-02-26T12:25:24.012Z,20.89
2019-02-26T12:26:25.551Z,20.83
2019-02-26T12:27:24.138Z,20.80
2019-02-26T12:28:25.427Z,20.76
2019-02-26T12:29:26.001Z,20.77
2019-02-26T12:30:24.252Z,20.84
2019-02-26T12:31:25.388Z,20.93
2019-02-26T12:32:24.971Z,20.93
2019-02-26T12:33:24.401Z,20.89
2019-02-26T12:34:24.444Z,20.79
2019-02-26T12:35:24.480Z,20.83
2019-02-26T12:36:26.492Z,20.89
2019-02-26T12:37:24.553Z,20.86
2019-02-26T12:38:24.628Z,20.91
2019-02-26T12:39:25.700Z,20.74
2019-02-26T12:40:25.527Z,20.72
2019-02-26T12:41:24.769Z,20.83
2019-02-26T12:42:24.803Z,20.77
2019-02-26T12:43:24.830Z,20.64
2019-02-26T12:44:24.900Z,20.81
2019-02-26T12:45:26.028Z,20.89
2019-02-26T12:46:27.388Z,21.06
2019-02-26T12:47:27.607Z,21.09
2019-02-26T12:48:25.080Z,21.11
2019-02-26T12:49:25.175Z,20.93
2019-02-26T12:50:28.967Z,20.90
2019-02-26T12:51:26.287Z,20.95
2019-02-26T12:52:27.613Z,20.96
2019-02-26T12:53:25.308Z,20.99